Terminal Aerodrome Forecast
Issued by NWS Jackson, MS

Home | Current Version | Previous Version | Text Only | Print | Product List | Glossary On
Versions: 1 2 3 4 5 6 7 8 9 10 11 12 13
603
FTUS44 KJAN 281132
TAFGWO
TAF
KGWO 281132Z 2812/2912 16010KT P6SM SCT008
     FM281300 17012G20KT P6SM SCT008 BKN015
     FM281800 18013G22KT P6SM SCT015 BKN025
     FM282000 18018G28KT P6SM BKN035
     FM290900 17014G21KT P6SM OVC025=

USA.gov is the U.S. government's official web portal to all federal, state and local government web resources and services.